sensor_id;sensor_type;location;lat;lon;timestamp;temperature;humidity
43099;DHT22;28715;51.988;6.020;2023-10-19T00:00:40;11.60;99.90
43099;DHT22;28715;51.988;6.020;2023-10-19T00:03:16;11.70;99.90
43099;DHT22;28715;51.988;6.020;2023-10-19T00:05:41;11.70;99.90
43099;DHT22;28715;51.988;6.020;2023-10-19T00:08:07;11.70;99.90
43099;DHT22;28715;51.988;6.020;2023-10-19T00:10:49;11.80;99.90
43099;DHT22;28715;51.988;6.020;2023-10-19T00:13:33;11.80;99.90
43099;DHT22;28715;51.988;6.020;2023-10-19T00:16:02;11.90;99.90
43099;DHT22;28715;51.988;6.020;2023-10-19T00:18:32;11.90;99.90
43099;DHT22;28715;51.988;6.020;2023-10-19T00:21:00;12.00;99.90
43099;DHT22;28715;51.988;6.020;2023-10-19T00:23:36;12.10;99.90
43099;DHT22;28715;51.988;6.020;2023-10-19T00:26:02;12.10;99.90
43099;DHT22;28715;51.988;6.020;2023-10-19T00:28:34;12.20;99.90
43099;DHT22;28715;51.988;6.020;2023-10-19T00:31:01;12.20;99.90
43099;DHT22;28715;51.988;6.020;2023-10-19T00:33:29;12.30;99.90
43099;DHT22;28715;51.988;6.020;2023-10-19T00:35:55;12.30;99.90
43099;DHT22;28715;51.988;6.020;2023-10-19T00:38:36;12.30;99.90
43099;DHT22;28715;51.988;6.020;2023-10-19T00:41:02;12.40;99.90
43099;DHT22;28715;51.988;6.020;2023-10-19T00:43:38;12.50;99.90
43099;DHT22;28715;51.988;6.020;2023-10-19T00:46:20;12.50;99.90
43099;DHT22;28715;51.988;6.020;2023-10-19T00:48:49;12.60;99.90
43099;DHT22;28715;51.988;6.020;2023-10-19T00:51:16;12.60;99.90
43099;DHT22;28715;51.988;6.020;2023-10-19T00:54:16;12.70;99.90
43099;DHT22;28715;51.988;6.020;2023-10-19T00:56:47;12.70;99.90
43099;DHT22;28715;51.988;6.020;2023-10-19T00:59:14;12.70;99.90
43099;DHT22;28715;51.988;6.020;2023-10-19T01:01:44;12.70;99.90
43099;DHT22;28715;51.988;6.020;2023-10-19T01:04:13;12.80;99.90
43099;DHT22;28715;51.988;6.020;2023-10-19T01:06:48;12.80;99.90
43099;DHT22;28715;51.988;6.020;2023-10-19T01:09:30;12.90;99.90
43099;DHT22;28715;51.988;6.020;2023-10-19T01:12:01;12.90;99.90
43099;DHT22;28715;51.988;6.020;2023-10-19T01:14:31;12.90;99.90
43099;DHT22;28715;51.988;6.020;2023-10-19T01:16:57;13.00;99.90
43099;DHT22;28715;51.988;6.020;2023-10-19T01:19:23;13.10;99.90
43099;DHT22;28715;51.988;6.020;2023-10-19T01:21:49;13.10;99.90
43099;DHT22;28715;51.988;6.020;2023-10-19T01:24:19;13.10;99.90
43099;DHT22;28715;51.988;6.020;2023-10-19T01:26:50;13.10;99.90
43099;DHT22;28715;51.988;6.020;2023-10-19T01:29:15;13.20;99.90
43099;DHT22;28715;51.988;6.020;2023-10-19T01:31:43;13.20;99.90
43099;DHT22;28715;51.988;6.020;2023-10-19T01:34:29;13.20;99.90
43099;DHT22;28715;51.988;6.020;2023-10-19T01:36:54;13.30;99.90
43099;DHT22;28715;51.988;6.020;2023-10-19T01:39:21;13.30;99.90
43099;DHT22;28715;51.988;6.020;2023-10-19T01:41:46;13.30;99.90
43099;DHT22;28715;51.988;6.020;2023-10-19T01:44:12;13.40;99.90
43099;DHT22;28715;51.988;6.020;2023-10-19T01:46:41;13.40;99.90
43099;DHT22;28715;51.988;6.020;2023-10-19T01:49:09;13.50;99.90
43099;DHT22;28715;51.988;6.020;2023-10-19T01:51:35;13.50;99.90
43099;DHT22;28715;51.988;6.020;2023-10-19T01:54:04;13.50;99.90
43099;DHT22;28715;51.988;6.020;2023-10-19T01:56:30;13.50;99.90
43099;DHT22;28715;51.988;6.020;2023-10-19T01:58:55;13.50;99.90
43099;DHT22;28715;51.988;6.020;2023-10-19T02:01:22;13.50;99.90
43099;DHT22;28715;51.988;6.020;2023-10-19T02:03:51;13.50;99.90
43099;DHT22;28715;51.988;6.020;2023-10-19T02:06:26;13.50;99.90
43099;DHT22;28715;51.988;6.020;2023-10-19T02:09:00;13.50;99.90
43099;DHT22;28715;51.988;6.020;2023-10-19T02:11:28;13.60;99.90
43099;DHT22;28715;51.988;6.020;2023-10-19T02:13:55;13.60;99.90
43099;DHT22;28715;51.988;6.020;2023-10-19T02:16:21;13.60;99.90
43099;DHT22;28715;51.988;6.020;2023-10-19T02:18:50;13.60;99.90
43099;DHT22;28715;51.988;6.020;2023-10-19T02:21:16;13.60;99.90
43099;DHT22;28715;51.988;6.020;2023-10-19T02:23:50;13.70;99.90
43099;DHT22;28715;51.988;6.020;2023-10-19T02:26:19;13.70;99.90
43099;DHT22;28715;51.988;6.020;2023-10-19T02:28:56;13.80;99.90
43099;DHT22;28715;51.988;6.020;2023-10-19T02:31:22;13.80;99.90
43099;DHT22;28715;51.988;6.020;2023-10-19T02:33:48;13.90;99.90
43099;DHT22;28715;51.988;6.020;2023-10-19T02:36:18;13.80;99.90
43099;DHT22;28715;51.988;6.020;2023-10-19T02:38:47;13.90;99.90
43099;DHT22;28715;51.988;6.020;2023-10-19T02:41:17;13.90;99.90
43099;DHT22;28715;51.988;6.020;2023-10-19T02:43:43;14.00;99.90
43099;DHT22;28715;51.988;6.020;2023-10-19T02:46:13;14.00;99.90
43099;DHT22;28715;51.988;6.020;2023-10-19T02:48:39;14.00;99.90
43099;DHT22;28715;51.988;6.020;2023-10-19T02:51:10;14.00;99.90
43099;DHT22;28715;51.988;6.020;2023-10-19T02:53:37;14.10;99.90
43099;DHT22;28715;51.988;6.020;2023-10-19T02:56:13;14.20;99.90
43099;DHT22;28715;51.988;6.020;2023-10-19T02:58:41;14.20;99.90
43099;DHT22;28715;51.988;6.020;2023-10-19T03:01:11;14.20;99.90
43099;DHT22;28715;51.988;6.020;2023-10-19T03:03:37;14.30;99.90
43099;DHT22;28715;51.988;6.020;2023-10-19T03:06:03;14.30;99.90
43099;DHT22;28715;51.988;6.020;2023-10-19T03:08:29;14.30;99.90
43099;DHT22;28715;51.988;6.020;2023-10-19T03:10:56;14.40;99.90
43099;DHT22;28715;51.988;6.020;2023-10-19T03:13:32;14.40;99.90
43099;DHT22;28715;51.988;6.020;2023-10-19T03:16:01;14.50;99.90
43099;DHT22;28715;51.988;6.020;2023-10-19T03:18:31;14.50;99.90
43099;DHT22;28715;51.988;6.020;2023-10-19T03:20:57;14.50;99.90
43099;DHT22;28715;51.988;6.020;2023-10-19T03:23:23;14.50;99.90
43099;DHT22;28715;51.988;6.020;2023-10-19T03:25:53;14.50;99.90
43099;DHT22;28715;51.988;6.020;2023-10-19T03:28:37;14.50;99.90
43099;DHT22;28715;51.988;6.020;2023-10-19T03:31:03;14.50;99.90
43099;DHT22;28715;51.988;6.020;2023-10-19T03:33:29;14.60;99.90
43099;DHT22;28715;51.988;6.020;2023-10-19T03:35:56;14.60;99.90
43099;DHT22;28715;51.988;6.020;2023-10-19T03:38:21;14.60;99.90
43099;DHT22;28715;51.988;6.020;2023-10-19T03:40:48;14.60;99.90
43099;DHT22;28715;51.988;6.020;2023-10-19T03:43:17;14.70;99.90
43099;DHT22;28715;51.988;6.020;2023-10-19T03:45:46;14.70;99.90
43099;DHT22;28715;51.988;6.020;2023-10-19T03:48:17;14.80;99.90
43099;DHT22;28715;51.988;6.020;2023-10-19T03:50:42;14.80;99.90
43099;DHT22;28715;51.988;6.020;2023-10-19T03:53:08;14.90;99.90
43099;DHT22;28715;51.988;6.020;2023-10-19T03:55:37;15.00;99.90
43099;DHT22;28715;51.988;6.020;2023-10-19T03:58:03;15.00;99.90
43099;DHT22;28715;51.988;6.020;2023-10-19T04:00:30;15.10;99.90
43099;DHT22;28715;51.988;6.020;2023-10-19T04:02:58;15.10;99.90
43099;DHT22;28715;51.988;6.020;2023-10-19T04:05:24;15.20;99.90
43099;DHT22;28715;51.988;6.020;2023-10-19T04:07:51;15.20;99.90
43099;DHT22;28715;51.988;6.020;2023-10-19T04:10:30;15.20;99.90
43099;DHT22;28715;51.988;6.020;2023-10-19T04:12:59;15.20;99.90
43099;DHT22;28715;51.988;6.020;2023-10-19T04:15:26;15.20;99.90
43099;DHT22;28715;51.988;6.020;2023-10-19T04:17:52;15.20;99.90
43099;DHT22;28715;51.988;6.020;2023-10-19T04:20:23;15.20;99.90
43099;DHT22;28715;51.988;6.020;2023-10-19T04:23:01;15.20;99.90
43099;DHT22;28715;51.988;6.020;2023-10-19T04:25:36;15.20;99.90
43099;DHT22;28715;51.988;6.020;2023-10-19T04:28:01;15.20;99.90
43099;DHT22;28715;51.988;6.020;2023-10-19T04:30:28;15.20;99.90
43099;DHT22;28715;51.988;6.020;2023-10-19T04:32:55;15.20;99.90
43099;DHT22;28715;51.988;6.020;2023-10-19T04:35:23;15.20;99.90
43099;DHT22;28715;51.988;6.020;2023-10-19T04:37:49;15.20;99.90
43099;DHT22;28715;51.988;6.020;2023-10-19T04:40:21;15.20;99.90
43099;DHT22;28715;51.988;6.020;2023-10-19T04:42:47;15.10;99.90
43099;DHT22;28715;51.988;6.020;2023-10-19T04:45:13;15.20;99.90
43099;DHT22;28715;51.988;6.020;2023-10-19T04:47:39;15.10;99.90
43099;DHT22;28715;51.988;6.020;2023-10-19T04:50:05;15.10;99.90
43099;DHT22;28715;51.988;6.020;2023-10-19T04:52:31;15.20;99.90
43099;DHT22;28715;51.988;6.020;2023-10-19T04:54:56;15.20;99.90
43099;DHT22;28715;51.988;6.020;2023-10-19T04:57:22;15.20;99.90
43099;DHT22;28715;51.988;6.020;2023-10-19T04:59:47;15.20;99.90
43099;DHT22;28715;51.988;6.020;2023-10-19T05:02:13;15.20;99.90
43099;DHT22;28715;51.988;6.020;2023-10-19T05:04:38;15.20;99.90
43099;DHT22;28715;51.988;6.020;2023-10-19T05:07:06;15.20;99.90
43099;DHT22;28715;51.988;6.020;2023-10-19T05:09:31;15.20;99.90
43099;DHT22;28715;51.988;6.020;2023-10-19T05:11:57;15.20;99.90
43099;DHT22;28715;51.988;6.020;2023-10-19T05:14:23;15.20;99.90
43099;DHT22;28715;51.988;6.020;2023-10-19T05:16:48;15.20;99.90
43099;DHT22;28715;51.988;6.020;2023-10-19T05:19:14;15.20;99.90
43099;DHT22;28715;51.988;6.020;2023-10-19T05:21:40;15.20;99.90
43099;DHT22;28715;51.988;6.020;2023-10-19T05:24:06;15.20;99.90
43099;DHT22;28715;51.988;6.020;2023-10-19T05:26:33;15.20;99.90
43099;DHT22;28715;51.988;6.020;2023-10-19T05:28:58;15.20;99.90
43099;DHT22;28715;51.988;6.020;2023-10-19T05:31:24;15.20;99.90
43099;DHT22;28715;51.988;6.020;2023-10-19T05:33:49;15.20;99.90
43099;DHT22;28715;51.988;6.020;2023-10-19T05:36:15;15.20;99.90
43099;DHT22;28715;51.988;6.020;2023-10-19T05:38:42;15.20;99.90
43099;DHT22;28715;51.988;6.020;2023-10-19T05:41:08;15.10;99.90
43099;DHT22;28715;51.988;6.020;2023-10-19T05:43:35;15.20;99.90
43099;DHT22;28715;51.988;6.020;2023-10-19T05:46:00;15.20;99.90
43099;DHT22;28715;51.988;6.020;2023-10-19T05:48:26;15.20;99.90
43099;DHT22;28715;51.988;6.020;2023-10-19T05:50:52;15.20;99.90
43099;DHT22;28715;51.988;6.020;2023-10-19T05:53:17;15.20;99.90
43099;DHT22;28715;51.988;6.020;2023-10-19T05:55:48;15.20;99.90
43099;DHT22;28715;51.988;6.020;2023-10-19T05:58:14;15.20;99.90
43099;DHT22;28715;51.988;6.020;2023-10-19T06:00:40;15.20;99.90
43099;DHT22;28715;51.988;6.020;2023-10-19T06:03:05;15.30;99.90
43099;DHT22;28715;51.988;6.020;2023-10-19T06:05:31;15.30;99.90
43099;DHT22;28715;51.988;6.020;2023-10-19T06:07:56;15.30;99.90
43099;DHT22;28715;51.988;6.020;2023-10-19T06:10:22;15.30;99.90
43099;DHT22;28715;51.988;6.020;2023-10-19T06:12:51;15.30;99.90
43099;DHT22;28715;51.988;6.020;2023-10-19T06:15:17;15.40;99.90
43099;DHT22;28715;51.988;6.020;2023-10-19T06:17:43;15.40;99.90
43099;DHT22;28715;51.988;6.020;2023-10-19T06:20:11;15.30;99.90
43099;DHT22;28715;51.988;6.020;2023-10-19T06:22:50;15.40;99.90
43099;DHT22;28715;51.988;6.020;2023-10-19T06:25:16;15.40;99.90
43099;DHT22;28715;51.988;6.020;2023-10-19T06:27:43;15.40;99.90
43099;DHT22;28715;51.988;6.020;2023-10-19T06:30:08;15.40;99.90
43099;DHT22;28715;51.988;6.020;2023-10-19T06:32:34;15.40;99.90
43099;DHT22;28715;51.988;6.020;2023-10-19T06:35:00;15.40;99.90
43099;DHT22;28715;51.988;6.020;2023-10-19T06:37:27;15.50;99.90
43099;DHT22;28715;51.988;6.020;2023-10-19T06:39:52;15.50;99.90
43099;DHT22;28715;51.988;6.020;2023-10-19T06:42:18;15.50;99.90
43099;DHT22;28715;51.988;6.020;2023-10-19T06:44:43;15.50;99.90
43099;DHT22;28715;51.988;6.020;2023-10-19T06:47:09;15.60;99.90
43099;DHT22;28715;51.988;6.020;2023-10-19T06:49:35;15.60;99.90
43099;DHT22;28715;51.988;6.020;2023-10-19T06:52:01;15.60;99.90
43099;DHT22;28715;51.988;6.020;2023-10-19T06:54:30;15.60;99.90
43099;DHT22;28715;51.988;6.020;2023-10-19T06:56:55;15.60;99.90
43099;DHT22;28715;51.988;6.020;2023-10-19T06:59:21;15.70;99.90
43099;DHT22;28715;51.988;6.020;2023-10-19T07:01:46;15.70;99.90
43099;DHT22;28715;51.988;6.020;2023-10-19T07:04:12;15.70;99.90
43099;DHT22;28715;51.988;6.020;2023-10-19T07:06:38;15.80;99.90
43099;DHT22;28715;51.988;6.020;2023-10-19T07:09:04;15.80;99.90
43099;DHT22;28715;51.988;6.020;2023-10-19T07:11:31;15.80;99.90
43099;DHT22;28715;51.988;6.020;2023-10-19T07:13:57;15.80;99.90
43099;DHT22;28715;51.988;6.020;2023-10-19T07:16:22;15.90;99.90
43099;DHT22;28715;51.988;6.020;2023-10-19T07:18:49;15.90;99.90
43099;DHT22;28715;51.988;6.020;2023-10-19T07:21:15;15.90;99.90
43099;DHT22;28715;51.988;6.020;2023-10-19T07:23:42;16.00;99.90
43099;DHT22;28715;51.988;6.020;2023-10-19T07:26:09;16.00;99.90
43099;DHT22;28715;51.988;6.020;2023-10-19T07:28:36;16.00;99.90
43099;DHT22;28715;51.988;6.020;2023-10-19T07:31:03;16.10;99.90
43099;DHT22;28715;51.988;6.020;2023-10-19T07:33:28;16.00;99.90
43099;DHT22;28715;51.988;6.020;2023-10-19T07:35:54;16.10;99.90
43099;DHT22;28715;51.988;6.020;2023-10-19T07:38:23;16.10;99.90
43099;DHT22;28715;51.988;6.020;2023-10-19T07:40:49;16.10;99.90
43099;DHT22;28715;51.988;6.020;2023-10-19T07:43:14;16.10;99.90
43099;DHT22;28715;51.988;6.020;2023-10-19T07:45:40;16.20;99.90
43099;DHT22;28715;51.988;6.020;2023-10-19T07:48:05;16.20;99.90
43099;DHT22;28715;51.988;6.020;2023-10-19T07:50:34;16.20;99.90
43099;DHT22;28715;51.988;6.020;2023-10-19T07:53:00;16.20;99.90
43099;DHT22;28715;51.988;6.020;2023-10-19T07:55:26;16.30;99.90
43099;DHT22;28715;51.988;6.020;2023-10-19T07:57:52;16.30;99.90
43099;DHT22;28715;51.988;6.020;2023-10-19T08:00:18;16.30;99.90
43099;DHT22;28715;51.988;6.020;2023-10-19T08:02:44;16.30;99.90
43099;DHT22;28715;51.988;6.020;2023-10-19T08:05:11;16.40;99.90
43099;DHT22;28715;51.988;6.020;2023-10-19T08:07:37;16.40;99.90
43099;DHT22;28715;51.988;6.020;2023-10-19T08:10:08;16.40;99.90
43099;DHT22;28715;51.988;6.020;2023-10-19T08:12:34;16.50;99.90
43099;DHT22;28715;51.988;6.020;2023-10-19T08:15:01;16.50;99.90
43099;DHT22;28715;51.988;6.020;2023-10-19T08:17:26;16.50;99.90
43099;DHT22;28715;51.988;6.020;2023-10-19T08:19:52;16.50;99.90
43099;DHT22;28715;51.988;6.020;2023-10-19T08:22:17;16.60;99.90
43099;DHT22;28715;51.988;6.020;2023-10-19T08:24:43;16.60;99.90
43099;DHT22;28715;51.988;6.020;2023-10-19T08:27:11;16.60;99.90
43099;DHT22;28715;51.988;6.020;2023-10-19T08:29:37;16.70;99.90
43099;DHT22;28715;51.988;6.020;2023-10-19T08:32:02;16.60;99.90
43099;DHT22;28715;51.988;6.020;2023-10-19T08:34:28;16.70;99.90
43099;DHT22;28715;51.988;6.020;2023-10-19T08:36:55;16.70;99.90
43099;DHT22;28715;51.988;6.020;2023-10-19T08:39:20;16.70;99.90
43099;DHT22;28715;51.988;6.020;2023-10-19T08:41:46;16.70;99.90
43099;DHT22;28715;51.988;6.020;2023-10-19T08:44:14;16.70;99.90
43099;DHT22;28715;51.988;6.020;2023-10-19T08:46:44;16.70;99.90
43099;DHT22;28715;51.988;6.020;2023-10-19T08:49:13;16.70;99.90
43099;DHT22;28715;51.988;6.020;2023-10-19T08:51:39;16.70;99.90
43099;DHT22;28715;51.988;6.020;2023-10-19T08:54:05;16.70;99.90
43099;DHT22;28715;51.988;6.020;2023-10-19T08:56:31;16.80;99.90
43099;DHT22;28715;51.988;6.020;2023-10-19T08:58:58;16.80;99.90
43099;DHT22;28715;51.988;6.020;2023-10-19T09:01:23;16.90;99.90
43099;DHT22;28715;51.988;6.020;2023-10-19T09:03:50;17.00;99.90
43099;DHT22;28715;51.988;6.020;2023-10-19T09:06:15;17.00;99.90
43099;DHT22;28715;51.988;6.020;2023-10-19T09:08:41;17.10;99.90
43099;DHT22;28715;51.988;6.020;2023-10-19T09:11:07;17.10;99.90
43099;DHT22;28715;51.988;6.020;2023-10-19T09:13:52;17.10;99.90
43099;DHT22;28715;51.988;6.020;2023-10-19T09:16:21;17.20;99.90
43099;DHT22;28715;51.988;6.020;2023-10-19T09:18:46;17.20;99.90
43099;DHT22;28715;51.988;6.020;2023-10-19T09:21:16;17.30;99.90
43099;DHT22;28715;51.988;6.020;2023-10-19T09:23:51;17.30;99.90
43099;DHT22;28715;51.988;6.020;2023-10-19T09:26:16;17.30;99.90
43099;DHT22;28715;51.988;6.020;2023-10-19T09:28:45;17.40;99.90
43099;DHT22;28715;51.988;6.020;2023-10-19T09:31:12;17.40;99.90
43099;DHT22;28715;51.988;6.020;2023-10-19T09:33:40;17.50;99.90
43099;DHT22;28715;51.988;6.020;2023-10-19T09:36:06;17.60;99.90
43099;DHT22;28715;51.988;6.020;2023-10-19T09:38:38;17.60;99.90
43099;DHT22;28715;51.988;6.020;2023-10-19T09:41:04;17.60;99.90
43099;DHT22;28715;51.988;6.020;2023-10-19T09:43:35;17.70;99.90
43099;DHT22;28715;51.988;6.020;2023-10-19T09:46:05;17.70;99.90
43099;DHT22;28715;51.988;6.020;2023-10-19T09:48:31;17.80;99.90
43099;DHT22;28715;51.988;6.020;2023-10-19T09:51:01;18.00;99.90
43099;DHT22;28715;51.988;6.020;2023-10-19T09:53:29;18.10;99.90
43099;DHT22;28715;51.988;6.020;2023-10-19T09:55:58;18.20;99.90
43099;DHT22;28715;51.988;6.020;2023-10-19T09:58:37;18.30;99.90
43099;DHT22;28715;51.988;6.020;2023-10-19T10:01:05;18.30;99.90
43099;DHT22;28715;51.988;6.020;2023-10-19T10:06:12;18.40;99.90
43099;DHT22;28715;51.988;6.020;2023-10-19T10:08:40;18.50;99.90
43099;DHT22;28715;51.988;6.020;2023-10-19T10:11:16;18.70;99.90
43099;DHT22;28715;51.988;6.020;2023-10-19T10:13:42;18.80;99.90
43099;DHT22;28715;51.988;6.020;2023-10-19T10:16:08;19.00;99.90
43099;DHT22;28715;51.988;6.020;2023-10-19T10:18:34;19.00;99.60
43099;DHT22;28715;51.988;6.020;2023-10-19T10:21:13;19.00;99.50
43099;DHT22;28715;51.988;6.020;2023-10-19T10:26:11;19.20;99.40
43099;DHT22;28715;51.988;6.020;2023-10-19T10:28:36;19.30;99.30
43099;DHT22;28715;51.988;6.020;2023-10-19T10:33:43;19.50;98.80
43099;DHT22;28715;51.988;6.020;2023-10-19T10:36:13;19.60;98.60
43099;DHT22;28715;51.988;6.020;2023-10-19T10:38:39;19.60;98.50
43099;DHT22;28715;51.988;6.020;2023-10-19T10:41:05;19.50;98.40
43099;DHT22;28715;51.988;6.020;2023-10-19T10:43:47;19.50;98.50
43099;DHT22;28715;51.988;6.020;2023-10-19T10:46:13;19.50;98.60
43099;DHT22;28715;51.988;6.020;2023-10-19T10:48:41;19.50;98.60
43099;DHT22;28715;51.988;6.020;2023-10-19T10:51:16;19.60;98.80
43099;DHT22;28715;51.988;6.020;2023-10-19T10:53:42;19.70;99.00
43099;DHT22;28715;51.988;6.020;2023-10-19T10:56:07;19.80;98.60
43099;DHT22;28715;51.988;6.020;2023-10-19T10:58:33;19.80;98.60
43099;DHT22;28715;51.988;6.020;2023-10-19T11:00:58;19.80;98.30
43099;DHT22;28715;51.988;6.020;2023-10-19T11:03:24;19.90;98.50
43099;DHT22;28715;51.988;6.020;2023-10-19T11:05:55;20.00;98.00
43099;DHT22;28715;51.988;6.020;2023-10-19T11:08:23;19.90;97.80
43099;DHT22;28715;51.988;6.020;2023-10-19T11:10:49;19.90;98.00
43099;DHT22;28715;51.988;6.020;2023-10-19T11:13:16;19.90;98.10
43099;DHT22;28715;51.988;6.020;2023-10-19T11:15:48;19.90;98.40
43099;DHT22;28715;51.988;6.020;2023-10-19T11:20:59;19.80;98.20
43099;DHT22;28715;51.988;6.020;2023-10-19T11:23:38;19.80;98.10
43099;DHT22;28715;51.988;6.020;2023-10-19T11:26:04;19.80;98.30
43099;DHT22;28715;51.988;6.020;2023-10-19T11:28:30;19.80;98.40
43099;DHT22;28715;51.988;6.020;2023-10-19T11:31:10;19.80;98.40
43099;DHT22;28715;51.988;6.020;2023-10-19T11:33:36;19.90;98.40
43099;DHT22;28715;51.988;6.020;2023-10-19T11:36:02;20.00;98.40
43099;DHT22;28715;51.988;6.020;2023-10-19T11:38:27;20.00;98.20
43099;DHT22;28715;51.988;6.020;2023-10-19T11:40:53;20.10;97.90
43099;DHT22;28715;51.988;6.020;2023-10-19T11:43:18;20.10;98.00
43099;DHT22;28715;51.988;6.020;2023-10-19T11:45:43;20.20;97.90
43099;DHT22;28715;51.988;6.020;2023-10-19T11:48:11;20.20;97.60
43099;DHT22;28715;51.988;6.020;2023-10-19T11:50:36;20.20;97.70
43099;DHT22;28715;51.988;6.020;2023-10-19T11:53:02;20.20;97.20
43099;DHT22;28715;51.988;6.020;2023-10-19T11:55:28;20.20;97.60
43099;DHT22;28715;51.988;6.020;2023-10-19T11:57:54;20.20;97.50
43099;DHT22;28715;51.988;6.020;2023-10-19T12:00:19;20.30;97.60
43099;DHT22;28715;51.988;6.020;2023-10-19T12:02:47;20.40;97.40
43099;DHT22;28715;51.988;6.020;2023-10-19T12:05:12;20.40;97.10
43099;DHT22;28715;51.988;6.020;2023-10-19T12:07:38;20.40;97.20
43099;DHT22;28715;51.988;6.020;2023-10-19T12:10:08;20.30;97.20
43099;DHT22;28715;51.988;6.020;2023-10-19T12:12:34;20.20;97.10
43099;DHT22;28715;51.988;6.020;2023-10-19T12:14:59;20.20;97.30
43099;DHT22;28715;51.988;6.020;2023-10-19T12:17:25;20.10;97.40
43099;DHT22;28715;51.988;6.020;2023-10-19T12:19:53;20.10;97.50
43099;DHT22;28715;51.988;6.020;2023-10-19T12:22:19;20.20;98.00
43099;DHT22;28715;51.988;6.020;2023-10-19T12:24:46;20.30;97.50
43099;DHT22;28715;51.988;6.020;2023-10-19T12:27:11;20.30;97.60
43099;DHT22;28715;51.988;6.020;2023-10-19T12:29:39;20.30;97.30
43099;DHT22;28715;51.988;6.020;2023-10-19T12:32:04;20.30;97.50
43099;DHT22;28715;51.988;6.020;2023-10-19T12:34:30;20.30;97.30
43099;DHT22;28715;51.988;6.020;2023-10-19T12:36:56;20.30;97.30
43099;DHT22;28715;51.988;6.020;2023-10-19T12:39:24;20.20;97.30
43099;DHT22;28715;51.988;6.020;2023-10-19T12:42:05;20.20;97.30
43099;DHT22;28715;51.988;6.020;2023-10-19T12:44:33;20.10;97.50
43099;DHT22;28715;51.988;6.020;2023-10-19T12:47:07;20.00;97.50
43099;DHT22;28715;51.988;6.020;2023-10-19T12:49:38;20.00;97.60
43099;DHT22;28715;51.988;6.020;2023-10-19T12:52:04;20.00;97.80
43099;DHT22;28715;51.988;6.020;2023-10-19T12:54:33;19.90;98.10
43099;DHT22;28715;51.988;6.020;2023-10-19T12:57:00;19.90;98.00
43099;DHT22;28715;51.988;6.020;2023-10-19T12:59:25;19.80;98.10
43099;DHT22;28715;51.988;6.020;2023-10-19T13:01:51;19.80;98.10
43099;DHT22;28715;51.988;6.020;2023-10-19T13:04:20;19.70;98.00
43099;DHT22;28715;51.988;6.020;2023-10-19T13:06:49;19.70;98.20
43099;DHT22;28715;51.988;6.020;2023-10-19T13:09:15;19.70;98.30
43099;DHT22;28715;51.988;6.020;2023-10-19T13:11:50;19.70;98.40
43099;DHT22;28715;51.988;6.020;2023-10-19T13:14:18;19.70;98.50
43099;DHT22;28715;51.988;6.020;2023-10-19T13:16:44;19.70;98.30
43099;DHT22;28715;51.988;6.020;2023-10-19T13:19:09;19.70;98.40
43099;DHT22;28715;51.988;6.020;2023-10-19T13:21:39;19.70;98.40
43099;DHT22;28715;51.988;6.020;2023-10-19T13:24:04;19.70;98.30
43099;DHT22;28715;51.988;6.020;2023-10-19T13:26:31;19.60;98.60
43099;DHT22;28715;51.988;6.020;2023-10-19T13:28:57;19.60;98.30
43099;DHT22;28715;51.988;6.020;2023-10-19T13:31:23;19.60;98.30
43099;DHT22;28715;51.988;6.020;2023-10-19T13:33:49;19.60;98.40
43099;DHT22;28715;51.988;6.020;2023-10-19T13:36:15;19.60;98.40
43099;DHT22;28715;51.988;6.020;2023-10-19T13:38:41;19.50;98.40
43099;DHT22;28715;51.988;6.020;2023-10-19T13:41:07;19.50;98.60
43099;DHT22;28715;51.988;6.020;2023-10-19T13:43:36;19.50;98.70
43099;DHT22;28715;51.988;6.020;2023-10-19T13:46:01;19.50;98.70
43099;DHT22;28715;51.988;6.020;2023-10-19T13:48:27;19.50;98.70
43099;DHT22;28715;51.988;6.020;2023-10-19T13:50:53;19.50;98.80
43099;DHT22;28715;51.988;6.020;2023-10-19T13:53:21;19.50;98.90
43099;DHT22;28715;51.988;6.020;2023-10-19T13:55:46;19.50;99.00
43099;DHT22;28715;51.988;6.020;2023-10-19T13:58:12;19.50;99.00
43099;DHT22;28715;51.988;6.020;2023-10-19T14:00:40;19.50;99.10
43099;DHT22;28715;51.988;6.020;2023-10-19T14:03:06;19.50;99.20
43099;DHT22;28715;51.988;6.020;2023-10-19T14:05:42;19.60;99.30
43099;DHT22;28715;51.988;6.020;2023-10-19T14:08:08;19.60;99.40
43099;DHT22;28715;51.988;6.020;2023-10-19T14:10:34;19.60;99.30
43099;DHT22;28715;51.988;6.020;2023-10-19T14:13:00;19.60;99.30
43099;DHT22;28715;51.988;6.020;2023-10-19T14:15:25;19.60;99.30
43099;DHT22;28715;51.988;6.020;2023-10-19T14:17:55;19.60;99.30
43099;DHT22;28715;51.988;6.020;2023-10-19T14:20:21;19.60;99.60
43099;DHT22;28715;51.988;6.020;2023-10-19T14:22:50;19.60;99.40
43099;DHT22;28715;51.988;6.020;2023-10-19T14:25:16;19.50;99.30
43099;DHT22;28715;51.988;6.020;2023-10-19T14:27:42;19.50;99.30
43099;DHT22;28715;51.988;6.020;2023-10-19T14:30:08;19.50;99.20
43099;DHT22;28715;51.988;6.020;2023-10-19T14:32:37;19.40;99.20
43099;DHT22;28715;51.988;6.020;2023-10-19T14:35:03;19.40;99.40
43099;DHT22;28715;51.988;6.020;2023-10-19T14:37:31;19.30;99.40
43099;DHT22;28715;51.988;6.020;2023-10-19T14:39:56;19.30;99.40
43099;DHT22;28715;51.988;6.020;2023-10-19T14:42:24;19.20;99.50
43099;DHT22;28715;51.988;6.020;2023-10-19T14:44:49;19.20;99.60
43099;DHT22;28715;51.988;6.020;2023-10-19T14:47:15;19.20;99.60
43099;DHT22;28715;51.988;6.020;2023-10-19T14:49:40;19.20;99.60
43099;DHT22;28715;51.988;6.020;2023-10-19T14:52:06;19.20;99.50
43099;DHT22;28715;51.988;6.020;2023-10-19T14:54:32;19.10;99.50
43099;DHT22;28715;51.988;6.020;2023-10-19T14:56:57;19.10;99.50
43099;DHT22;28715;51.988;6.020;2023-10-19T14:59:23;19.10;99.60
43099;DHT22;28715;51.988;6.020;2023-10-19T15:01:48;19.10;99.70
43099;DHT22;28715;51.988;6.020;2023-10-19T15:04:13;19.10;99.70
43099;DHT22;28715;51.988;6.020;2023-10-19T15:06:39;19.10;99.70
43099;DHT22;28715;51.988;6.020;2023-10-19T15:09:04;19.10;99.60
43099;DHT22;28715;51.988;6.020;2023-10-19T15:11:30;19.10;99.60
43099;DHT22;28715;51.988;6.020;2023-10-19T15:13:56;19.10;99.60
43099;DHT22;28715;51.988;6.020;2023-10-19T15:16:23;19.10;99.60
43099;DHT22;28715;51.988;6.020;2023-10-19T15:18:49;19.10;99.50
43099;DHT22;28715;51.988;6.020;2023-10-19T15:21:14;19.10;99.50
43099;DHT22;28715;51.988;6.020;2023-10-19T15:23:40;19.00;99.50
43099;DHT22;28715;51.988;6.020;2023-10-19T15:26:08;19.00;99.50
43099;DHT22;28715;51.988;6.020;2023-10-19T15:28:34;18.90;99.50
43099;DHT22;28715;51.988;6.020;2023-10-19T15:30:59;18.90;99.60
43099;DHT22;28715;51.988;6.020;2023-10-19T15:33:25;18.90;99.60
43099;DHT22;28715;51.988;6.020;2023-10-19T15:35:52;18.80;99.60
43099;DHT22;28715;51.988;6.020;2023-10-19T15:38:19;18.80;99.80
43099;DHT22;28715;51.988;6.020;2023-10-19T15:40:45;18.70;99.90
43099;DHT22;28715;51.988;6.020;2023-10-19T15:45:57;18.50;99.90